sensor_id;sensor_type;location;lat;lon;timestamp;pressure;altitude;pressure_sealevel;temperature;humidity
40948;BME280;49382;-25.924;28.194;2023-06-14T00:02:13;85225.74;;;10.96;30.11
40948;BME280;49382;-25.924;28.194;2023-06-14T00:04:39;85222.08;;;10.29;31.20
40948;BME280;49382;-25.924;28.194;2023-06-14T00:07:05;85217.31;;;10.08;31.78
40948;BME280;49382;-25.924;28.194;2023-06-14T00:09:29;85213.44;;;11.00;31.15
40948;BME280;49382;-25.924;28.194;2023-06-14T00:11:54;85206.17;;;11.16;30.83
40948;BME280;49382;-25.924;28.194;2023-06-14T00:14:20;85202.24;;;10.52;31.20
40948;BME280;49382;-25.924;28.194;2023-06-14T00:16:45;85201.71;;;11.00;30.93
40948;BME280;49382;-25.924;28.194;2023-06-14T00:19:11;85196.12;;;10.79;31.12
40948;BME280;49382;-25.924;28.194;2023-06-14T00:21:36;85189.38;;;10.70;31.25
40948;BME280;49382;-25.924;28.194;2023-06-14T00:24:02;85188.41;;;10.68;30.97
40948;BME280;49382;-25.924;28.194;2023-06-14T00:26:26;85186.45;;;10.95;31.09
40948;BME280;49382;-25.924;28.194;2023-06-14T00:28:52;85188.89;;;10.92;30.86
40948;BME280;49382;-25.924;28.194;2023-06-14T00:31:18;85189.78;;;11.15;30.75
40948;BME280;49382;-25.924;28.194;2023-06-14T00:33:43;85192.20;;;10.91;30.87
40948;BME280;49382;-25.924;28.194;2023-06-14T00:36:09;85193.77;;;10.51;31.30
40948;BME280;49382;-25.924;28.194;2023-06-14T00:38:34;85195.02;;;11.62;30.30
40948;BME280;49382;-25.924;28.194;2023-06-14T00:41:00;85191.51;;;11.62;30.05
40948;BME280;49382;-25.924;28.194;2023-06-14T00:43:25;85189.59;;;9.94;31.90
40948;BME280;49382;-25.924;28.194;2023-06-14T00:45:50;85190.34;;;12.02;29.80
40948;BME280;49382;-25.924;28.194;2023-06-14T00:48:16;85188.10;;;11.93;30.32
40948;BME280;49382;-25.924;28.194;2023-06-14T00:50:42;85187.78;;;11.79;30.20
40948;BME280;49382;-25.924;28.194;2023-06-14T00:53:07;85189.15;;;10.55;31.34
40948;BME280;49382;-25.924;28.194;2023-06-14T00:55:32;85189.29;;;11.72;30.23
40948;BME280;49382;-25.924;28.194;2023-06-14T00:57:58;85191.78;;;11.42;30.74
40948;BME280;49382;-25.924;28.194;2023-06-14T01:00:23;85189.56;;;10.74;31.41
40948;BME280;49382;-25.924;28.194;2023-06-14T01:02:49;85191.95;;;10.81;31.29
40948;BME280;49382;-25.924;28.194;2023-06-14T01:05:14;85192.69;;;11.19;30.63
40948;BME280;49382;-25.924;28.194;2023-06-14T01:07:57;85189.22;;;10.92;31.08
40948;BME280;49382;-25.924;28.194;2023-06-14T01:10:15;85187.54;;;10.53;31.63
40948;BME280;49382;-25.924;28.194;2023-06-14T01:12:34;85191.13;;;9.83;32.66
40948;BME280;49382;-25.924;28.194;2023-06-14T01:14:55;85194.72;;;10.82;32.59
40948;BME280;49382;-25.924;28.194;2023-06-14T01:17:20;85192.67;;;10.01;33.28
40948;BME280;49382;-25.924;28.194;2023-06-14T01:19:45;85188.09;;;10.16;33.27
40948;BME280;49382;-25.924;28.194;2023-06-14T01:22:11;85186.83;;;10.40;33.42
40948;BME280;49382;-25.924;28.194;2023-06-14T01:24:36;85186.52;;;9.15;34.28
40948;BME280;49382;-25.924;28.194;2023-06-14T01:27:03;85184.47;;;10.73;32.90
40948;BME280;49382;-25.924;28.194;2023-06-14T01:29:27;85178.91;;;9.70;34.13
40948;BME280;49382;-25.924;28.194;2023-06-14T01:31:51;85178.23;;;9.85;33.87
40948;BME280;49382;-25.924;28.194;2023-06-14T01:34:17;85176.58;;;9.01;34.90
40948;BME280;49382;-25.924;28.194;2023-06-14T01:36:43;85177.19;;;10.16;33.19
40948;BME280;49382;-25.924;28.194;2023-06-14T01:39:07;85177.97;;;10.78;32.92
40948;BME280;49382;-25.924;28.194;2023-06-14T01:41:33;85170.52;;;9.53;34.87
40948;BME280;49382;-25.924;28.194;2023-06-14T01:43:59;85172.37;;;9.04;35.20
40948;BME280;49382;-25.924;28.194;2023-06-14T01:46:23;85175.77;;;10.37;33.66
40948;BME280;49382;-25.924;28.194;2023-06-14T01:48:48;85177.45;;;10.69;32.97
40948;BME280;49382;-25.924;28.194;2023-06-14T01:51:13;85177.26;;;10.68;32.40
40948;BME280;49382;-25.924;28.194;2023-06-14T01:53:38;85183.03;;;10.24;32.69
40948;BME280;49382;-25.924;28.194;2023-06-14T01:56:04;85185.73;;;10.30;32.89
40948;BME280;49382;-25.924;28.194;2023-06-14T01:58:29;85186.21;;;10.35;33.12
40948;BME280;49382;-25.924;28.194;2023-06-14T02:00:54;85184.75;;;10.81;32.40
40948;BME280;49382;-25.924;28.194;2023-06-14T02:03:19;85180.51;;;9.93;32.97
40948;BME280;49382;-25.924;28.194;2023-06-14T02:05:44;85178.44;;;10.07;32.46
40948;BME280;49382;-25.924;28.194;2023-06-14T02:08:10;85179.91;;;10.08;32.61
40948;BME280;49382;-25.924;28.194;2023-06-14T02:10:35;85178.46;;;9.21;33.40
40948;BME280;49382;-25.924;28.194;2023-06-14T02:13:00;85175.36;;;9.90;33.31
40948;BME280;49382;-25.924;28.194;2023-06-14T02:15:26;85172.11;;;9.80;33.23
40948;BME280;49382;-25.924;28.194;2023-06-14T02:17:51;85175.64;;;10.22;33.09
40948;BME280;49382;-25.924;28.194;2023-06-14T02:20:16;85177.52;;;10.15;33.08
40948;BME280;49382;-25.924;28.194;2023-06-14T02:22:42;85172.67;;;10.37;32.78
40948;BME280;49382;-25.924;28.194;2023-06-14T02:25:07;85169.28;;;9.76;33.50
40948;BME280;49382;-25.924;28.194;2023-06-14T02:27:32;85172.44;;;10.60;32.43
40948;BME280;49382;-25.924;28.194;2023-06-14T02:29:57;85173.89;;;10.50;32.39
40948;BME280;49382;-25.924;28.194;2023-06-14T02:32:22;85167.93;;;9.89;33.24
40948;BME280;49382;-25.924;28.194;2023-06-14T02:34:48;85171.62;;;10.03;33.14
40948;BME280;49382;-25.924;28.194;2023-06-14T02:37:13;85169.32;;;9.37;33.68
40948;BME280;49382;-25.924;28.194;2023-06-14T02:39:38;85172.10;;;9.36;33.57
40948;BME280;49382;-25.924;28.194;2023-06-14T02:42:03;85178.16;;;10.41;32.51
40948;BME280;49382;-25.924;28.194;2023-06-14T02:44:29;85174.45;;;9.45;34.08
40948;BME280;49382;-25.924;28.194;2023-06-14T02:46:54;85175.60;;;8.59;35.29
40948;BME280;49382;-25.924;28.194;2023-06-14T02:49:19;85175.40;;;9.25;34.63
40948;BME280;49382;-25.924;28.194;2023-06-14T02:51:44;85174.84;;;9.56;34.00
40948;BME280;49382;-25.924;28.194;2023-06-14T02:54:09;85177.05;;;9.10;33.08
40948;BME280;49382;-25.924;28.194;2023-06-14T02:56:35;85177.66;;;8.28;34.42
40948;BME280;49382;-25.924;28.194;2023-06-14T02:59:00;85175.40;;;7.93;35.52
40948;BME280;49382;-25.924;28.194;2023-06-14T03:01:26;85173.17;;;8.98;34.30
40948;BME280;49382;-25.924;28.194;2023-06-14T03:03:50;85172.32;;;9.06;34.70
40948;BME280;49382;-25.924;28.194;2023-06-14T03:06:15;85171.50;;;9.39;34.01
40948;BME280;49382;-25.924;28.194;2023-06-14T03:08:41;85172.79;;;8.73;34.86
40948;BME280;49382;-25.924;28.194;2023-06-14T03:11:06;85176.68;;;9.06;35.60
40948;BME280;49382;-25.924;28.194;2023-06-14T03:13:31;85177.47;;;8.10;37.72
40948;BME280;49382;-25.924;28.194;2023-06-14T03:15:56;85177.21;;;8.78;36.61
40948;BME280;49382;-25.924;28.194;2023-06-14T03:18:22;85176.05;;;8.21;36.83
40948;BME280;49382;-25.924;28.194;2023-06-14T03:20:47;85182.71;;;8.63;36.46
40948;BME280;49382;-25.924;28.194;2023-06-14T03:23:13;85181.76;;;8.01;35.62
40948;BME280;49382;-25.924;28.194;2023-06-14T03:25:38;85181.16;;;7.77;36.07
40948;BME280;49382;-25.924;28.194;2023-06-14T03:28:03;85182.86;;;8.92;35.06
40948;BME280;49382;-25.924;28.194;2023-06-14T03:30:29;85187.56;;;8.59;35.57
40948;BME280;49382;-25.924;28.194;2023-06-14T03:32:54;85185.32;;;8.15;36.35
40948;BME280;49382;-25.924;28.194;2023-06-14T03:35:19;85183.88;;;7.62;37.24
40948;BME280;49382;-25.924;28.194;2023-06-14T03:37:44;85187.20;;;8.67;36.18
40948;BME280;49382;-25.924;28.194;2023-06-14T03:40:11;85191.14;;;9.54;34.79
40948;BME280;49382;-25.924;28.194;2023-06-14T03:42:35;85195.16;;;8.48;36.42
40948;BME280;49382;-25.924;28.194;2023-06-14T03:45:01;85199.79;;;9.77;34.48
40948;BME280;49382;-25.924;28.194;2023-06-14T03:47:26;85201.00;;;9.70;34.10
40948;BME280;49382;-25.924;28.194;2023-06-14T03:49:51;85203.11;;;9.78;33.69
40948;BME280;49382;-25.924;28.194;2023-06-14T03:52:17;85206.75;;;9.63;33.61
40948;BME280;49382;-25.924;28.194;2023-06-14T03:54:42;85203.58;;;9.53;33.71
40948;BME280;49382;-25.924;28.194;2023-06-14T03:57:08;85200.42;;;9.90;33.61
40948;BME280;49382;-25.924;28.194;2023-06-14T03:59:33;85202.67;;;10.18;33.56
40948;BME280;49382;-25.924;28.194;2023-06-14T04:01:58;85206.18;;;10.32;32.79
40948;BME280;49382;-25.924;28.194;2023-06-14T04:04:23;85204.84;;;9.77;33.24
40948;BME280;49382;-25.924;28.194;2023-06-14T04:06:49;85204.37;;;9.71;33.33
40948;BME280;49382;-25.924;28.194;2023-06-14T04:09:14;85204.87;;;7.77;35.51
40948;BME280;49382;-25.924;28.194;2023-06-14T04:11:40;85210.18;;;7.70;35.71
40948;BME280;49382;-25.924;28.194;2023-06-14T04:14:06;85209.34;;;8.75;34.61
40948;BME280;49382;-25.924;28.194;2023-06-14T04:16:30;85209.93;;;8.31;34.96
40948;BME280;49382;-25.924;28.194;2023-06-14T04:18:55;85212.95;;;8.19;34.72
40948;BME280;49382;-25.924;28.194;2023-06-14T04:21:21;85213.36;;;8.36;34.36
40948;BME280;49382;-25.924;28.194;2023-06-14T04:23:46;85214.49;;;8.91;34.58
40948;BME280;49382;-25.924;28.194;2023-06-14T04:26:11;85216.73;;;8.68;35.42
40948;BME280;49382;-25.924;28.194;2023-06-14T04:28:36;85219.06;;;8.92;35.02
40948;BME280;49382;-25.924;28.194;2023-06-14T04:31:02;85220.09;;;9.55;34.66
40948;BME280;49382;-25.924;28.194;2023-06-14T04:33:27;85223.21;;;10.29;33.40
40948;BME280;49382;-25.924;28.194;2023-06-14T04:35:53;85224.97;;;10.17;33.56
40948;BME280;49382;-25.924;28.194;2023-06-14T04:38:18;85225.59;;;9.47;34.23
40948;BME280;49382;-25.924;28.194;2023-06-14T04:40:44;85232.27;;;10.38;33.22
40948;BME280;49382;-25.924;28.194;2023-06-14T04:43:09;85238.20;;;10.46;32.54
40948;BME280;49382;-25.924;28.194;2023-06-14T04:45:34;85240.04;;;8.58;34.41
40948;BME280;49382;-25.924;28.194;2023-06-14T04:48:00;85235.45;;;9.74;33.26
40948;BME280;49382;-25.924;28.194;2023-06-14T04:50:25;85236.31;;;8.63;34.43
40948;BME280;49382;-25.924;28.194;2023-06-14T04:52:50;85240.81;;;9.07;33.79
40948;BME280;49382;-25.924;28.194;2023-06-14T04:55:15;85244.58;;;9.43;34.12
40948;BME280;49382;-25.924;28.194;2023-06-14T04:57:41;85243.98;;;9.61;33.66
40948;BME280;49382;-25.924;28.194;2023-06-14T05:00:08;85245.06;;;9.54;33.59
40948;BME280;49382;-25.924;28.194;2023-06-14T05:02:32;85249.60;;;9.88;33.87
40948;BME280;49382;-25.924;28.194;2023-06-14T05:04:57;85255.70;;;10.18;33.60
40948;BME280;49382;-25.924;28.194;2023-06-14T05:07:23;85256.28;;;10.44;33.41
40948;BME280;49382;-25.924;28.194;2023-06-14T05:09:48;85260.28;;;10.16;33.48
40948;BME280;49382;-25.924;28.194;2023-06-14T05:12:14;85261.40;;;9.53;33.34
40948;BME280;49382;-25.924;28.194;2023-06-14T05:14:39;85259.35;;;10.25;33.68
40948;BME280;49382;-25.924;28.194;2023-06-14T05:17:05;85257.37;;;10.51;33.44
40948;BME280;49382;-25.924;28.194;2023-06-14T05:19:31;85259.20;;;9.86;33.81
40948;BME280;49382;-25.924;28.194;2023-06-14T05:21:56;85258.32;;;10.95;32.79
40948;BME280;49382;-25.924;28.194;2023-06-14T05:24:22;85262.86;;;9.42;34.39
40948;BME280;49382;-25.924;28.194;2023-06-14T05:26:47;85265.95;;;9.04;35.69
40948;BME280;49382;-25.924;28.194;2023-06-14T05:29:12;85269.66;;;9.05;34.91
40948;BME280;49382;-25.924;28.194;2023-06-14T05:31:38;85274.79;;;9.77;35.03
40948;BME280;49382;-25.924;28.194;2023-06-14T05:34:03;85277.67;;;10.84;33.95
40948;BME280;49382;-25.924;28.194;2023-06-14T05:36:28;85280.40;;;10.70;33.42
40948;BME280;49382;-25.924;28.194;2023-06-14T05:38:53;85289.09;;;11.25;32.93
40948;BME280;49382;-25.924;28.194;2023-06-14T05:41:19;85291.29;;;11.05;32.53
40948;BME280;49382;-25.924;28.194;2023-06-14T05:43:44;85293.47;;;11.56;32.66
40948;BME280;49382;-25.924;28.194;2023-06-14T05:46:10;85301.12;;;11.71;32.55
40948;BME280;49382;-25.924;28.194;2023-06-14T05:48:36;85298.88;;;11.61;32.68
40948;BME280;49382;-25.924;28.194;2023-06-14T05:51:02;85297.03;;;10.96;33.62
40948;BME280;49382;-25.924;28.194;2023-06-14T05:53:26;85300.04;;;11.63;33.47
40948;BME280;49382;-25.924;28.194;2023-06-14T05:55:52;85300.38;;;11.65;33.03
40948;BME280;49382;-25.924;28.194;2023-06-14T05:58:17;85298.98;;;12.00;32.85
40948;BME280;49382;-25.924;28.194;2023-06-14T06:00:42;85297.86;;;12.48;31.41
40948;BME280;49382;-25.924;28.194;2023-06-14T06:03:07;85298.26;;;11.95;32.68
40948;BME280;49382;-25.924;28.194;2023-06-14T06:05:33;85299.90;;;12.70;32.22
40948;BME280;49382;-25.924;28.194;2023-06-14T06:07:58;85303.67;;;12.95;31.95
40948;BME280;49382;-25.924;28.194;2023-06-14T06:10:24;85303.84;;;13.84;30.95
40948;BME280;49382;-25.924;28.194;2023-06-14T06:12:49;85305.86;;;14.94;29.68
40948;BME280;49382;-25.924;28.194;2023-06-14T06:15:15;85308.58;;;14.83;29.88
40948;BME280;49382;-25.924;28.194;2023-06-14T06:17:40;85306.24;;;14.98;29.13
40948;BME280;49382;-25.924;28.194;2023-06-14T06:20:07;85302.53;;;15.31;27.89
40948;BME280;49382;-25.924;28.194;2023-06-14T06:22:31;85309.44;;;16.07;26.31
40948;BME280;49382;-25.924;28.194;2023-06-14T06:24:56;85312.54;;;15.37;26.60
40948;BME280;49382;-25.924;28.194;2023-06-14T06:27:21;85317.98;;;17.13;26.14
40948;BME280;49382;-25.924;28.194;2023-06-14T06:29:46;85323.91;;;16.55;25.26
40948;BME280;49382;-25.924;28.194;2023-06-14T06:32:11;85328.81;;;17.23;25.08
40948;BME280;49382;-25.924;28.194;2023-06-14T06:34:36;85329.68;;;18.18;24.60
40948;BME280;49382;-25.924;28.194;2023-06-14T06:37:02;85328.93;;;17.00;24.46
40948;BME280;49382;-25.924;28.194;2023-06-14T06:39:26;85335.56;;;19.04;23.12
40948;BME280;49382;-25.924;28.194;2023-06-14T06:41:52;85344.60;;;24.55;18.82
40948;BME280;49382;-25.924;28.194;2023-06-14T06:44:17;85345.04;;;28.32;15.35
40948;BME280;49382;-25.924;28.194;2023-06-14T06:46:43;85346.70;;;31.01;13.02
40948;BME280;49382;-25.924;28.194;2023-06-14T06:49:07;85349.16;;;31.84;12.40
40948;BME280;49382;-25.924;28.194;2023-06-14T06:51:32;85358.43;;;34.43;10.98
40948;BME280;49382;-25.924;28.194;2023-06-14T06:53:57;85360.16;;;33.45;10.92
40948;BME280;49382;-25.924;28.194;2023-06-14T06:56:22;85360.10;;;34.11;9.98
40948;BME280;49382;-25.924;28.194;2023-06-14T06:58:47;85359.59;;;36.91;8.13
40948;BME280;49382;-25.924;28.194;2023-06-14T07:01:13;85363.77;;;37.50;7.82
40948;BME280;49382;-25.924;28.194;2023-06-14T07:03:38;85362.55;;;39.63;7.07
40948;BME280;49382;-25.924;28.194;2023-06-14T07:06:04;85370.46;;;40.43;6.59
40948;BME280;49382;-25.924;28.194;2023-06-14T07:08:30;85370.18;;;41.25;6.20
40948;BME280;49382;-25.924;28.194;2023-06-14T07:10:56;85367.67;;;41.27;5.92
40948;BME280;49382;-25.924;28.194;2023-06-14T07:13:22;85370.90;;;41.01;6.29
40948;BME280;49382;-25.924;28.194;2023-06-14T07:15:47;85366.43;;;40.57;5.90
40948;BME280;49382;-25.924;28.194;2023-06-14T07:18:13;85364.97;;;41.70;5.66
40948;BME280;49382;-25.924;28.194;2023-06-14T07:20:39;85363.41;;;43.46;5.31
40948;BME280;49382;-25.924;28.194;2023-06-14T07:23:04;85358.38;;;37.83;6.74
40948;BME280;49382;-25.924;28.194;2023-06-14T07:25:30;85358.73;;;42.02;5.33
40948;BME280;49382;-25.924;28.194;2023-06-14T07:27:56;85356.36;;;39.77;5.90
40948;BME280;49382;-25.924;28.194;2023-06-14T07:30:22;85354.68;;;41.52;5.70
40948;BME280;49382;-25.924;28.194;2023-06-14T07:32:49;85358.88;;;44.46;4.91
40948;BME280;49382;-25.924;28.194;2023-06-14T07:35:13;85353.22;;;43.69;4.62
40948;BME280;49382;-25.924;28.194;2023-06-14T07:37:38;85356.54;;;43.13;5.29
40948;BME280;49382;-25.924;28.194;2023-06-14T07:40:05;85353.54;;;45.02;4.17
40948;BME280;49382;-25.924;28.194;2023-06-14T07:42:30;85352.59;;;44.26;4.29
40948;BME280;49382;-25.924;28.194;2023-06-14T07:44:55;85350.39;;;43.92;4.55
40948;BME280;49382;-25.924;28.194;2023-06-14T07:47:21;85353.26;;;45.98;4.19
40948;BME280;49382;-25.924;28.194;2023-06-14T07:49:47;85353.37;;;47.21;3.71
40948;BME280;49382;-25.924;28.194;2023-06-14T07:52:13;85359.11;;;47.14;3.75
40948;BME280;49382;-25.924;28.194;2023-06-14T07:54:38;85353.76;;;43.92;4.45
40948;BME280;49382;-25.924;28.194;2023-06-14T07:57:04;85355.84;;;43.97;5.13
40948;BME280;49382;-25.924;28.194;2023-06-14T07:59:29;85354.79;;;45.85;4.06
40948;BME280;49382;-25.924;28.194;2023-06-14T08:01:55;85352.01;;;46.12;3.99
40948;BME280;49382;-25.924;28.194;2023-06-14T08:04:21;85355.14;;;47.16;3.53
40948;BME280;49382;-25.924;28.194;2023-06-14T08:06:46;85353.76;;;46.45;3.51
40948;BME280;49382;-25.924;28.194;2023-06-14T08:09:13;85351.94;;;45.34;3.87
40948;BME280;49382;-25.924;28.194;2023-06-14T08:11:38;85355.16;;;45.91;3.48
40948;BME280;49382;-25.924;28.194;2023-06-14T08:14:04;85354.98;;;46.12;3.54
40948;BME280;49382;-25.924;28.194;2023-06-14T08:16:29;85361.22;;;49.70;2.38
40948;BME280;49382;-25.924;28.194;2023-06-14T08:18:56;85358.74;;;47.11;3.28
40948;BME280;49382;-25.924;28.194;2023-06-14T08:21:21;85356.69;;;46.94;2.96
40948;BME280;49382;-25.924;28.194;2023-06-14T08:23:47;85355.04;;;47.30;2.58
40948;BME280;49382;-25.924;28.194;2023-06-14T08:26:12;85355.91;;;48.35;2.38
40948;BME280;49382;-25.924;28.194;2023-06-14T08:28:38;85357.51;;;49.10;2.19
40948;BME280;49382;-25.924;28.194;2023-06-14T08:31:03;85353.08;;;47.32;2.32
40948;BME280;49382;-25.924;28.194;2023-06-14T08:33:29;85350.52;;;48.69;2.16
40948;BME280;49382;-25.924;28.194;2023-06-14T08:35:55;85349.32;;;51.27;1.55
40948;BME280;49382;-25.924;28.194;2023-06-14T08:38:20;85352.05;;;50.02;1.86
40948;BME280;49382;-25.924;28.194;2023-06-14T08:40:50;85348.71;;;51.31;1.31
40948;BME280;49382;-25.924;28.194;2023-06-14T08:43:13;85351.35;;;49.26;2.06
40948;BME280;49382;-25.924;28.194;2023-06-14T08:45:37;85353.56;;;48.93;2.25
40948;BME280;49382;-25.924;28.194;2023-06-14T08:48:03;85356.43;;;49.75;1.72
40948;BME280;49382;-25.924;28.194;2023-06-14T08:50:29;85351.80;;;48.32;1.94
40948;BME280;49382;-25.924;28.194;2023-06-14T08:52:56;85348.24;;;48.28;2.11
40948;BME280;49382;-25.924;28.194;2023-06-14T08:55:20;85347.49;;;51.48;1.31
40948;BME280;49382;-25.924;28.194;2023-06-14T08:57:47;85338.16;;;45.10;2.27
40948;BME280;49382;-25.924;28.194;2023-06-14T09:00:12;85341.44;;;49.54;1.80
40948;BME280;49382;-25.924;28.194;2023-06-14T09:02:36;85334.30;;;48.67;1.97
40948;BME280;49382;-25.924;28.194;2023-06-14T09:05:02;85335.76;;;48.97;1.83
40948;BME280;49382;-25.924;28.194;2023-06-14T09:07:28;85332.66;;;46.37;2.91
40948;BME280;49382;-25.924;28.194;2023-06-14T09:12:19;85325.52;;;45.47;3.44
40948;BME280;49382;-25.924;28.194;2023-06-14T09:14:44;85311.74;;;39.87;5.53
40948;BME280;49382;-25.924;28.194;2023-06-14T09:17:14;85309.41;;;35.97;6.69
40948;BME280;49382;-25.924;28.194;2023-06-14T09:19:36;85298.55;;;32.30;8.75
40948;BME280;49382;-25.924;28.194;2023-06-14T09:22:03;85298.97;;;30.07;10.28
40948;BME280;49382;-25.924;28.194;2023-06-14T09:24:27;85292.38;;;28.87;12.08
40948;BME280;49382;-25.924;28.194;2023-06-14T09:26:52;85292.06;;;27.45;11.81
40948;BME280;49382;-25.924;28.194;2023-06-14T09:29:18;85289.82;;;28.02;12.53
40948;BME280;49382;-25.924;28.194;2023-06-14T09:31:43;85289.17;;;26.30;14.40
40948;BME280;49382;-25.924;28.194;2023-06-14T09:34:09;85287.20;;;24.82;15.22
40948;BME280;49382;-25.924;28.194;2023-06-14T09:36:34;85290.18;;;26.00;15.16
40948;BME280;49382;-25.924;28.194;2023-06-14T09:39:01;85286.32;;;24.90;16.05
40948;BME280;49382;-25.924;28.194;2023-06-14T09:41:32;85281.74;;;24.77;16.28
40948;BME280;49382;-25.924;28.194;2023-06-14T09:43:51;85277.28;;;24.86;15.51
40948;BME280;49382;-25.924;28.194;2023-06-14T09:46:16;85276.59;;;26.23;14.53
40948;BME280;49382;-25.924;28.194;2023-06-14T09:48:42;85273.55;;;25.12;15.07
40948;BME280;49382;-25.924;28.194;2023-06-14T09:51:07;85271.15;;;24.27;15.84
40948;BME280;49382;-25.924;28.194;2023-06-14T09:53:35;85268.45;;;23.70;16.64
40948;BME280;49382;-25.924;28.194;2023-06-14T09:56:01;85259.38;;;24.30;16.15
40948;BME280;49382;-25.924;28.194;2023-06-14T09:58:27;85254.27;;;24.64;16.48
40948;BME280;49382;-25.924;28.194;2023-06-14T10:00:51;85250.99;;;22.45;18.12
40948;BME280;49382;-25.924;28.194;2023-06-14T10:03:24;85238.75;;;24.24;16.94
40948;BME280;49382;-25.924;28.194;2023-06-14T10:05:44;85234.09;;;23.89;16.02
40948;BME280;49382;-25.924;28.194;2023-06-14T10:08:09;85228.59;;;23.71;17.11
40948;BME280;49382;-25.924;28.194;2023-06-14T10:10:33;85228.30;;;23.62;15.84
40948;BME280;49382;-25.924;28.194;2023-06-14T10:12:59;85228.30;;;24.70;16.40
40948;BME280;49382;-25.924;28.194;2023-06-14T10:15:30;85224.45;;;25.14;16.31
40948;BME280;49382;-25.924;28.194;2023-06-14T10:17:59;85219.25;;;23.70;16.83
40948;BME280;49382;-25.924;28.194;2023-06-14T10:20:25;85212.18;;;24.15;17.36
40948;BME280;49382;-25.924;28.194;2023-06-14T10:22:47;85210.41;;;25.02;16.83
40948;BME280;49382;-25.924;28.194;2023-06-14T10:25:10;85205.17;;;24.01;17.29
40948;BME280;49382;-25.924;28.194;2023-06-14T10:27:33;85203.45;;;21.94;18.56
40948;BME280;49382;-25.924;28.194;2023-06-14T10:30:04;85197.67;;;23.49;17.95
40948;BME280;49382;-25.924;28.194;2023-06-14T10:32:25;85196.30;;;23.07;19.49
40948;BME280;49382;-25.924;28.194;2023-06-14T10:34:56;85193.01;;;22.64;18.73
40948;BME280;49382;-25.924;28.194;2023-06-14T10:37:16;85189.02;;;23.01;18.48
40948;BME280;49382;-25.924;28.194;2023-06-14T10:39:43;85186.71;;;23.50;17.66
40948;BME280;49382;-25.924;28.194;2023-06-14T10:42:09;85177.05;;;22.83;18.74
40948;BME280;49382;-25.924;28.194;2023-06-14T10:44:40;85179.29;;;21.34;20.05
40948;BME280;49382;-25.924;28.194;2023-06-14T10:47:01;85175.90;;;23.54;18.86
40948;BME280;49382;-25.924;28.194;2023-06-14T10:49:37;85171.13;;;23.54;19.16
40948;BME280;49382;-25.924;28.194;2023-06-14T10:51:53;85170.31;;;24.13;18.23
40948;BME280;49382;-25.924;28.194;2023-06-14T10:54:17;85163.62;;;23.52;18.15
40948;BME280;49382;-25.924;28.194;2023-06-14T10:56:47;85155.37;;;23.54;18.30
40948;BME280;49382;-25.924;28.194;2023-06-14T10:59:09;85155.31;;;24.02;18.32
40948;BME280;49382;-25.924;28.194;2023-06-14T11:01:38;85146.18;;;24.00;18.18
40948;BME280;49382;-25.924;28.194;2023-06-14T11:04:07;85136.32;;;23.12;18.22
40948;BME280;49382;-25.924;28.194;2023-06-14T11:06:28;85129.61;;;22.62;18.12
40948;BME280;49382;-25.924;28.194;2023-06-14T11:11:17;85121.40;;;23.69;18.09
40948;BME280;49382;-25.924;28.194;2023-06-14T11:13:44;85115.07;;;23.27;18.64
40948;BME280;49382;-25.924;28.194;2023-06-14T11:16:12;85117.25;;;22.98;18.86
40948;BME280;49382;-25.924;28.194;2023-06-14T11:18:32;85115.64;;;23.62;18.58
40948;BME280;49382;-25.924;28.194;2023-06-14T11:20:58;85112.50;;;22.22;18.20
40948;BME280;49382;-25.924;28.194;2023-06-14T11:23:24;85109.82;;;22.80;18.07
40948;BME280;49382;-25.924;28.194;2023-06-14T11:25:51;85107.05;;;23.59;17.69
40948;BME280;49382;-25.924;28.194;2023-06-14T11:28:15;85104.31;;;23.92;17.42
40948;BME280;49382;-25.924;28.194;2023-06-14T11:30:40;85101.59;;;23.47;17.38
40948;BME280;49382;-25.924;28.194;2023-06-14T11:33:10;85098.43;;;23.78;16.69
40948;BME280;49382;-25.924;28.194;2023-06-14T11:35:31;85093.84;;;23.04;17.65
40948;BME280;49382;-25.924;28.194;2023-06-14T11:37:57;85093.34;;;21.95;17.96
40948;BME280;49382;-25.924;28.194;2023-06-14T11:40:24;85094.55;;;20.86;18.77
40948;BME280;49382;-25.924;28.194;2023-06-14T11:42:48;85091.75;;;20.35;18.89
40948;BME280;49382;-25.924;28.194;2023-06-14T11:45:13;85088.20;;;20.98;18.76
40948;BME280;49382;-25.924;28.194;2023-06-14T11:47:39;85087.57;;;21.38;18.35
40948;BME280;49382;-25.924;28.194;2023-06-14T11:50:05;85080.93;;;22.00;18.01
40948;BME280;49382;-25.924;28.194;2023-06-14T11:52:29;85078.58;;;22.37;17.94
40948;BME280;49382;-25.924;28.194;2023-06-14T11:54:55;85077.01;;;22.69;17.68
40948;BME280;49382;-25.924;28.194;2023-06-14T11:57:20;85074.18;;;22.48;18.10
40948;BME280;49382;-25.924;28.194;2023-06-14T11:59:46;85076.35;;;21.35;18.86
40948;BME280;49382;-25.924;28.194;2023-06-14T12:02:15;85070.67;;;22.12;18.23
40948;BME280;49382;-25.924;28.194;2023-06-14T12:04:37;85060.01;;;21.83;18.11
40948;BME280;49382;-25.924;28.194;2023-06-14T12:07:10;85062.99;;;22.44;17.46
40948;BME280;49382;-25.924;28.194;2023-06-14T12:09:27;85061.51;;;22.31;17.50
40948;BME280;49382;-25.924;28.194;2023-06-14T12:12:00;85056.90;;;22.80;17.66
40948;BME280;49382;-25.924;28.194;2023-06-14T12:14:18;85054.37;;;21.97;18.29
40948;BME280;49382;-25.924;28.194;2023-06-14T12:16:43;85052.97;;;21.67;17.73
40948;BME280;49382;-25.924;28.194;2023-06-14T12:19:13;85055.78;;;22.68;17.50
40948;BME280;49382;-25.924;28.194;2023-06-14T12:21:34;85053.79;;;21.91;16.88
40948;BME280;49382;-25.924;28.194;2023-06-14T12:23:59;85057.73;;;21.47;17.52
40948;BME280;49382;-25.924;28.194;2023-06-14T12:26:25;85050.30;;;22.13;17.44
40948;BME280;49382;-25.924;28.194;2023-06-14T12:28:51;85045.98;;;20.22;18.58
40948;BME280;49382;-25.924;28.194;2023-06-14T12:31:16;85046.86;;;20.18;18.64
40948;BME280;49382;-25.924;28.194;2023-06-14T12:33:42;85043.10;;;20.92;18.24
40948;BME280;49382;-25.924;28.194;2023-06-14T12:36:08;85042.87;;;22.70;17.27
40948;BME280;49382;-25.924;28.194;2023-06-14T12:38:32;85039.22;;;22.66;17.82
40948;BME280;49382;-25.924;28.194;2023-06-14T12:40:57;85037.40;;;22.75;16.92